Terminal Aerodrome Forecast
Issued by NWS

Home | Current Version | Previous Version | Text Only | Print | Product List | Glossary Off
Versions: 1 2 3 4 5 6 7 8 9 10 11 12 13 14 15 16 17 18 19 20 21 22 23 24 25 26 27 28

488
FTUS45 KGGW 241120
TAFOLF
TAF
KOLF 241120Z 2412/2512 34008KT P6SM -SHRA OVC060
     FM241600 33015KT 6SM SHRA OVC025
     FM241900 33018G27KT 6SM SHRA OVC020
     FM250000 33018G27KT 6SM -SHRA OVC015
     FM250400 31015KT P6SM BKN070
     FM250900 29011KT P6SM SCT200=

USA.gov is the U.S. government's official web portal to all federal, state and local government web resources and services.